sensor_id;sensor_type;location;lat;lon;timestamp;temperature;humidity
66144;SHT31;52947;50.842;6.084;2023-02-13T00:00:56;5.23;91.85
66144;SHT31;52947;50.842;6.084;2023-02-13T00:03:24;5.12;91.79
66144;SHT31;52947;50.842;6.084;2023-02-13T00:05:54;5.15;92.09
66144;SHT31;52947;50.842;6.084;2023-02-13T00:08:22;5.15;92.09
66144;SHT31;52947;50.842;6.084;2023-02-13T00:10:50;5.17;92.09
66144;SHT31;52947;50.842;6.084;2023-02-13T00:13:18;5.16;91.95
66144;SHT31;52947;50.842;6.084;2023-02-13T00:15:54;5.13;91.90
66144;SHT31;52947;50.842;6.084;2023-02-13T00:18:23;5.13;91.91
66144;SHT31;52947;50.842;6.084;2023-02-13T00:20:59;5.03;92.16
66144;SHT31;52947;50.842;6.084;2023-02-13T00:23:29;5.07;92.40
66144;SHT31;52947;50.842;6.084;2023-02-13T00:25:57;5.09;92.24
66144;SHT31;52947;50.842;6.084;2023-02-13T00:28:25;5.06;92.12
66144;SHT31;52947;50.842;6.084;2023-02-13T00:30:53;4.93;91.98
66144;SHT31;52947;50.842;6.084;2023-02-13T00:33:22;4.92;92.16
66144;SHT31;52947;50.842;6.084;2023-02-13T00:35:50;4.85;92.39
66144;SHT31;52947;50.842;6.084;2023-02-13T00:38:21;4.79;92.56
66144;SHT31;52947;50.842;6.084;2023-02-13T00:40:48;4.73;92.54
66144;SHT31;52947;50.842;6.084;2023-02-13T00:43:16;4.62;92.63
66144;SHT31;52947;50.842;6.084;2023-02-13T00:45:46;4.49;93.04
66144;SHT31;52947;50.842;6.084;2023-02-13T00:48:14;4.62;93.36
66144;SHT31;52947;50.842;6.084;2023-02-13T00:50:42;4.66;93.12
66144;SHT31;52947;50.842;6.084;2023-02-13T00:53:10;4.65;93.19
66144;SHT31;52947;50.842;6.084;2023-02-13T00:55:39;4.49;93.00
66144;SHT31;52947;50.842;6.084;2023-02-13T00:58:07;4.65;93.15
66144;SHT31;52947;50.842;6.084;2023-02-13T01:00:36;4.54;92.90
66144;SHT31;52947;50.842;6.084;2023-02-13T01:03:04;4.49;93.17
66144;SHT31;52947;50.842;6.084;2023-02-13T01:05:32;4.48;93.18
66144;SHT31;52947;50.842;6.084;2023-02-13T01:08:00;4.51;93.14
66144;SHT31;52947;50.842;6.084;2023-02-13T01:10:28;4.52;93.19
66144;SHT31;52947;50.842;6.084;2023-02-13T01:12:57;4.51;93.29
66144;SHT31;52947;50.842;6.084;2023-02-13T01:15:25;4.45;93.20
66144;SHT31;52947;50.842;6.084;2023-02-13T01:17:53;4.47;93.31
66144;SHT31;52947;50.842;6.084;2023-02-13T01:20:24;4.41;93.27
66144;SHT31;52947;50.842;6.084;2023-02-13T01:22:53;4.38;93.21
66144;SHT31;52947;50.842;6.084;2023-02-13T01:25:21;4.30;93.20
66144;SHT31;52947;50.842;6.084;2023-02-13T01:27:49;4.17;93.39
66144;SHT31;52947;50.842;6.084;2023-02-13T01:30:19;4.06;93.47
66144;SHT31;52947;50.842;6.084;2023-02-13T01:32:47;3.89;93.57
66144;SHT31;52947;50.842;6.084;2023-02-13T01:35:15;3.73;93.77
66144;SHT31;52947;50.842;6.084;2023-02-13T01:37:43;3.56;93.73
66144;SHT31;52947;50.842;6.084;2023-02-13T01:40:12;3.42;93.80
66144;SHT31;52947;50.842;6.084;2023-02-13T01:42:40;3.32;94.02
66144;SHT31;52947;50.842;6.084;2023-02-13T01:45:21;3.22;94.06
66144;SHT31;52947;50.842;6.084;2023-02-13T01:47:52;3.09;94.01
66144;SHT31;52947;50.842;6.084;2023-02-13T01:50:26;2.95;94.03
66144;SHT31;52947;50.842;6.084;2023-02-13T01:52:59;2.84;94.09
66144;SHT31;52947;50.842;6.084;2023-02-13T01:55:30;2.80;94.45
66144;SHT31;52947;50.842;6.084;2023-02-13T01:58:02;2.70;94.34
66144;SHT31;52947;50.842;6.084;2023-02-13T02:00:34;2.63;94.43
66144;SHT31;52947;50.842;6.084;2023-02-13T02:03:08;2.70;95.04
66144;SHT31;52947;50.842;6.084;2023-02-13T02:05:37;2.87;95.47
66144;SHT31;52947;50.842;6.084;2023-02-13T02:08:09;2.91;95.63
66144;SHT31;52947;50.842;6.084;2023-02-13T02:10:38;3.18;96.29
66144;SHT31;52947;50.842;6.084;2023-02-13T02:13:09;3.31;96.44
66144;SHT31;52947;50.842;6.084;2023-02-13T02:15:41;3.16;95.74
66144;SHT31;52947;50.842;6.084;2023-02-13T02:18:13;3.19;95.95
66144;SHT31;52947;50.842;6.084;2023-02-13T02:21:04;3.21;96.24
66144;SHT31;52947;50.842;6.084;2023-02-13T02:24:08;3.14;95.97
66144;SHT31;52947;50.842;6.084;2023-02-13T02:26:54;3.18;96.29
66144;SHT31;52947;50.842;6.084;2023-02-13T02:29:51;3.12;96.12
66144;SHT31;52947;50.842;6.084;2023-02-13T02:32:47;3.22;96.48
66144;SHT31;52947;50.842;6.084;2023-02-13T02:35:28;3.28;96.39
66144;SHT31;52947;50.842;6.084;2023-02-13T02:38:09;3.14;96.11
66144;SHT31;52947;50.842;6.084;2023-02-13T02:40:51;2.95;95.59
66144;SHT31;52947;50.842;6.084;2023-02-13T02:43:32;2.88;95.72
66144;SHT31;52947;50.842;6.084;2023-02-13T02:46:10;2.94;96.10
66144;SHT31;52947;50.842;6.084;2023-02-13T02:48:47;3.05;96.39
66144;SHT31;52947;50.842;6.084;2023-02-13T02:51:42;2.91;95.82
66144;SHT31;52947;50.842;6.084;2023-02-13T02:54:16;2.73;95.55
66144;SHT31;52947;50.842;6.084;2023-02-13T02:57:09;2.65;95.60
66144;SHT31;52947;50.842;6.084;2023-02-13T02:59:39;2.58;95.49
66144;SHT31;52947;50.842;6.084;2023-02-13T03:02:27;2.71;95.97
66144;SHT31;52947;50.842;6.084;2023-02-13T03:05:26;2.77;96.25
66144;SHT31;52947;50.842;6.084;2023-02-13T03:08:13;2.85;96.30
66144;SHT31;52947;50.842;6.084;2023-02-13T03:11:01;3.11;96.48
66144;SHT31;52947;50.842;6.084;2023-02-13T03:13:48;2.80;95.38
66144;SHT31;52947;50.842;6.084;2023-02-13T03:16:19;2.77;95.68
66144;SHT31;52947;50.842;6.084;2023-02-13T03:19:12;2.68;95.56
66144;SHT31;52947;50.842;6.084;2023-02-13T03:22:05;2.65;95.68
66144;SHT31;52947;50.842;6.084;2023-02-13T03:24:55;2.34;94.73
66144;SHT31;52947;50.842;6.084;2023-02-13T03:27:35;2.30;96.00
66144;SHT31;52947;50.842;6.084;2023-02-13T03:30:33;2.57;96.29
66144;SHT31;52947;50.842;6.084;2023-02-13T03:33:11;2.63;95.91
66144;SHT31;52947;50.842;6.084;2023-02-13T03:35:48;2.65;95.82
66144;SHT31;52947;50.842;6.084;2023-02-13T03:38:41;2.53;95.39
66144;SHT31;52947;50.842;6.084;2023-02-13T03:41:14;2.60;95.78
66144;SHT31;52947;50.842;6.084;2023-02-13T03:43:56;2.37;95.17
66144;SHT31;52947;50.842;6.084;2023-02-13T03:46:28;2.37;95.42
66144;SHT31;52947;50.842;6.084;2023-02-13T03:48:58;2.25;95.21
66144;SHT31;52947;50.842;6.084;2023-02-13T03:51:48;2.37;95.84
66144;SHT31;52947;50.842;6.084;2023-02-13T03:54:21;2.33;95.44
66144;SHT31;52947;50.842;6.084;2023-02-13T03:57:08;2.44;95.86
66144;SHT31;52947;50.842;6.084;2023-02-13T03:59:56;2.32;95.40
66144;SHT31;52947;50.842;6.084;2023-02-13T04:02:29;2.22;95.18
66144;SHT31;52947;50.842;6.084;2023-02-13T04:05:03;2.06;95.05
66144;SHT31;52947;50.842;6.084;2023-02-13T04:07:34;2.08;95.33
66144;SHT31;52947;50.842;6.084;2023-02-13T04:10:05;1.97;95.24
66144;SHT31;52947;50.842;6.084;2023-02-13T04:12:38;1.89;95.27
66144;SHT31;52947;50.842;6.084;2023-02-13T04:15:14;1.89;95.48
66144;SHT31;52947;50.842;6.084;2023-02-13T04:17:44;2.06;95.99
66144;SHT31;52947;50.842;6.084;2023-02-13T04:20:13;2.08;96.06
66144;SHT31;52947;50.842;6.084;2023-02-13T04:22:42;2.15;96.17
66144;SHT31;52947;50.842;6.084;2023-02-13T04:25:13;2.18;95.89
66144;SHT31;52947;50.842;6.084;2023-02-13T04:27:41;2.22;95.95
66144;SHT31;52947;50.842;6.084;2023-02-13T04:30:10;2.47;96.52
66144;SHT31;52947;50.842;6.084;2023-02-13T04:32:38;2.39;95.92
66144;SHT31;52947;50.842;6.084;2023-02-13T04:35:06;2.32;95.33
66144;SHT31;52947;50.842;6.084;2023-02-13T04:37:37;2.30;95.43
66144;SHT31;52947;50.842;6.084;2023-02-13T04:40:05;2.40;95.45
66144;SHT31;52947;50.842;6.084;2023-02-13T04:42:35;2.57;95.40
66144;SHT31;52947;50.842;6.084;2023-02-13T04:45:03;2.46;94.90
66144;SHT31;52947;50.842;6.084;2023-02-13T04:47:31;2.47;95.22
66144;SHT31;52947;50.842;6.084;2023-02-13T04:49:59;2.37;94.83
66144;SHT31;52947;50.842;6.084;2023-02-13T04:52:27;2.50;95.23
66144;SHT31;52947;50.842;6.084;2023-02-13T04:54:55;2.29;94.59
66144;SHT31;52947;50.842;6.084;2023-02-13T04:57:23;2.12;94.52
66144;SHT31;52947;50.842;6.084;2023-02-13T04:59:52;2.02;94.45
66144;SHT31;52947;50.842;6.084;2023-02-13T05:02:20;2.01;94.75
66144;SHT31;52947;50.842;6.084;2023-02-13T05:04:47;1.88;94.33
66144;SHT31;52947;50.842;6.084;2023-02-13T05:07:15;1.64;93.80
66144;SHT31;52947;50.842;6.084;2023-02-13T05:09:43;1.58;94.34
66144;SHT31;52947;50.842;6.084;2023-02-13T05:12:11;1.60;94.76
66144;SHT31;52947;50.842;6.084;2023-02-13T05:14:39;1.52;94.76
66144;SHT31;52947;50.842;6.084;2023-02-13T05:17:08;1.72;95.25
66144;SHT31;52947;50.842;6.084;2023-02-13T05:19:36;1.75;95.05
66144;SHT31;52947;50.842;6.084;2023-02-13T05:22:04;1.64;94.83
66144;SHT31;52947;50.842;6.084;2023-02-13T05:24:49;1.52;94.61
66144;SHT31;52947;50.842;6.084;2023-02-13T05:27:17;1.44;94.69
66144;SHT31;52947;50.842;6.084;2023-02-13T05:29:45;1.36;94.62
66144;SHT31;52947;50.842;6.084;2023-02-13T05:32:15;1.31;94.68
66144;SHT31;52947;50.842;6.084;2023-02-13T05:34:42;1.29;94.97
66144;SHT31;52947;50.842;6.084;2023-02-13T05:37:10;1.22;94.77
66144;SHT31;52947;50.842;6.084;2023-02-13T05:39:38;1.19;94.91
66144;SHT31;52947;50.842;6.084;2023-02-13T05:42:06;1.09;94.74
66144;SHT31;52947;50.842;6.084;2023-02-13T05:44:34;0.90;94.23
66144;SHT31;52947;50.842;6.084;2023-02-13T05:47:02;1.00;95.07
66144;SHT31;52947;50.842;6.084;2023-02-13T05:49:33;0.90;94.68
66144;SHT31;52947;50.842;6.084;2023-02-13T05:52:01;1.01;95.37
66144;SHT31;52947;50.842;6.084;2023-02-13T05:54:28;1.13;95.62
66144;SHT31;52947;50.842;6.084;2023-02-13T05:56:56;1.16;95.76
66144;SHT31;52947;50.842;6.084;2023-02-13T05:59:24;1.20;95.86
66144;SHT31;52947;50.842;6.084;2023-02-13T06:01:52;1.31;95.77
66144;SHT31;52947;50.842;6.084;2023-02-13T06:04:20;1.43;95.80
66144;SHT31;52947;50.842;6.084;2023-02-13T06:06:49;1.48;95.75
66144;SHT31;52947;50.842;6.084;2023-02-13T06:09:17;1.52;95.61
66144;SHT31;52947;50.842;6.084;2023-02-13T06:11:45;1.57;95.59
66144;SHT31;52947;50.842;6.084;2023-02-13T06:14:13;1.67;95.52
66144;SHT31;52947;50.842;6.084;2023-02-13T06:16:41;1.81;95.88
66144;SHT31;52947;50.842;6.084;2023-02-13T06:19:08;1.94;95.17
66144;SHT31;52947;50.842;6.084;2023-02-13T06:21:36;1.88;94.42
66144;SHT31;52947;50.842;6.084;2023-02-13T06:24:06;1.72;93.91
66144;SHT31;52947;50.842;6.084;2023-02-13T06:26:34;1.72;94.81
66144;SHT31;52947;50.842;6.084;2023-02-13T06:29:02;1.86;95.21
66144;SHT31;52947;50.842;6.084;2023-02-13T06:31:32;1.82;94.29
66144;SHT31;52947;50.842;6.084;2023-02-13T06:34:00;1.91;94.71
66144;SHT31;52947;50.842;6.084;2023-02-13T06:36:28;1.91;94.82
66144;SHT31;52947;50.842;6.084;2023-02-13T06:38:56;1.88;94.90
66144;SHT31;52947;50.842;6.084;2023-02-13T06:41:25;1.77;94.32
66144;SHT31;52947;50.842;6.084;2023-02-13T06:43:53;1.79;94.50
66144;SHT31;52947;50.842;6.084;2023-02-13T06:46:21;1.98;94.86
66144;SHT31;52947;50.842;6.084;2023-02-13T06:48:49;2.01;94.36
66144;SHT31;52947;50.842;6.084;2023-02-13T06:51:17;2.09;94.67
66144;SHT31;52947;50.842;6.084;2023-02-13T06:53:44;2.09;94.11
66144;SHT31;52947;50.842;6.084;2023-02-13T06:56:12;2.03;93.89
66144;SHT31;52947;50.842;6.084;2023-02-13T06:58:41;1.89;93.45
66144;SHT31;52947;50.842;6.084;2023-02-13T07:01:09;1.79;93.72
66144;SHT31;52947;50.842;6.084;2023-02-13T07:03:38;1.65;93.63
66144;SHT31;52947;50.842;6.084;2023-02-13T07:06:06;1.68;94.24
66144;SHT31;52947;50.842;6.084;2023-02-13T07:08:34;1.71;94.38
66144;SHT31;52947;50.842;6.084;2023-02-13T07:11:01;1.61;93.99
66144;SHT31;52947;50.842;6.084;2023-02-13T07:13:29;1.71;94.44
66144;SHT31;52947;50.842;6.084;2023-02-13T07:16:00;1.89;94.86
66144;SHT31;52947;50.842;6.084;2023-02-13T07:18:28;1.94;94.89
66144;SHT31;52947;50.842;6.084;2023-02-13T07:20:57;1.97;94.85
66144;SHT31;52947;50.842;6.084;2023-02-13T07:23:25;1.98;94.83
66144;SHT31;52947;50.842;6.084;2023-02-13T07:25:53;1.99;94.65
66144;SHT31;52947;50.842;6.084;2023-02-13T07:28:21;1.88;94.29
66144;SHT31;52947;50.842;6.084;2023-02-13T07:30:49;1.89;94.52
66144;SHT31;52947;50.842;6.084;2023-02-13T07:33:23;1.89;94.59
66144;SHT31;52947;50.842;6.084;2023-02-13T07:35:51;1.78;94.15
66144;SHT31;52947;50.842;6.084;2023-02-13T07:38:19;1.78;94.16
66144;SHT31;52947;50.842;6.084;2023-02-13T07:40:47;2.52;93.87
66144;SHT31;52947;50.842;6.084;2023-02-13T07:43:15;3.75;93.64
66144;SHT31;52947;50.842;6.084;2023-02-13T07:45:45;4.89;92.44
66144;SHT31;52947;50.842;6.084;2023-02-13T07:48:13;5.71;87.40
66144;SHT31;52947;50.842;6.084;2023-02-13T07:50:42;6.70;88.20
66144;SHT31;52947;50.842;6.084;2023-02-13T07:53:10;7.59;84.79
66144;SHT31;52947;50.842;6.084;2023-02-13T07:55:38;8.49;84.85
66144;SHT31;52947;50.842;6.084;2023-02-13T07:58:06;9.34;80.89
66144;SHT31;52947;50.842;6.084;2023-02-13T08:00:34;10.35;78.70
66144;SHT31;52947;50.842;6.084;2023-02-13T08:03:02;11.14;76.55
66144;SHT31;52947;50.842;6.084;2023-02-13T08:05:31;11.79;74.58
66144;SHT31;52947;50.842;6.084;2023-02-13T08:08:00;12.45;72.41
66144;SHT31;52947;50.842;6.084;2023-02-13T08:10:28;13.01;69.24
66144;SHT31;52947;50.842;6.084;2023-02-13T08:13:14;13.43;69.25
66144;SHT31;52947;50.842;6.084;2023-02-13T08:15:42;13.80;66.66
66144;SHT31;52947;50.842;6.084;2023-02-13T08:18:10;14.21;65.65
66144;SHT31;52947;50.842;6.084;2023-02-13T08:20:38;14.82;66.57
66144;SHT31;52947;50.842;6.084;2023-02-13T08:23:09;15.81;61.87
66144;SHT31;52947;50.842;6.084;2023-02-13T08:25:38;16.50;58.83
66144;SHT31;52947;50.842;6.084;2023-02-13T08:28:06;15.88;59.18
66144;SHT31;52947;50.842;6.084;2023-02-13T08:30:34;16.97;57.59
66144;SHT31;52947;50.842;6.084;2023-02-13T08:33:02;17.34;53.51
66144;SHT31;52947;50.842;6.084;2023-02-13T08:35:29;18.03;53.44
66144;SHT31;52947;50.842;6.084;2023-02-13T08:38:00;18.45;52.48
66144;SHT31;52947;50.842;6.084;2023-02-13T08:40:30;18.41;51.72
66144;SHT31;52947;50.842;6.084;2023-02-13T08:42:59;18.30;51.02
66144;SHT31;52947;50.842;6.084;2023-02-13T08:45:27;18.67;50.85
66144;SHT31;52947;50.842;6.084;2023-02-13T08:47:55;18.24;50.95
66144;SHT31;52947;50.842;6.084;2023-02-13T08:50:25;18.98;49.55
66144;SHT31;52947;50.842;6.084;2023-02-13T08:52:53;19.19;49.95
66144;SHT31;52947;50.842;6.084;2023-02-13T08:55:20;19.64;49.39
66144;SHT31;52947;50.842;6.084;2023-02-13T08:57:50;20.21;48.11
66144;SHT31;52947;50.842;6.084;2023-02-13T09:00:18;20.62;46.24
66144;SHT31;52947;50.842;6.084;2023-02-13T09:02:46;20.99;46.37
66144;SHT31;52947;50.842;6.084;2023-02-13T09:05:15;20.76;47.09
66144;SHT31;52947;50.842;6.084;2023-02-13T09:07:42;20.75;47.29
66144;SHT31;52947;50.842;6.084;2023-02-13T09:10:10;20.79;45.21
66144;SHT31;52947;50.842;6.084;2023-02-13T09:12:38;19.87;47.07
66144;SHT31;52947;50.842;6.084;2023-02-13T09:15:08;20.93;44.90
66144;SHT31;52947;50.842;6.084;2023-02-13T09:17:36;21.14;45.16
66144;SHT31;52947;50.842;6.084;2023-02-13T09:20:05;21.11;45.44
66144;SHT31;52947;50.842;6.084;2023-02-13T09:22:33;22.25;43.45
66144;SHT31;52947;50.842;6.084;2023-02-13T09:25:01;22.09;44.31
66144;SHT31;52947;50.842;6.084;2023-02-13T09:27:30;21.95;43.87
66144;SHT31;52947;50.842;6.084;2023-02-13T09:29:59;22.29;42.66
66144;SHT31;52947;50.842;6.084;2023-02-13T09:32:29;22.63;42.52
66144;SHT31;52947;50.842;6.084;2023-02-13T09:34:56;22.80;42.23
66144;SHT31;52947;50.842;6.084;2023-02-13T09:37:26;21.74;43.22
66144;SHT31;52947;50.842;6.084;2023-02-13T09:39:53;21.96;43.37
66144;SHT31;52947;50.842;6.084;2023-02-13T09:42:24;22.50;42.72
66144;SHT31;52947;50.842;6.084;2023-02-13T09:44:55;22.61;42.31
66144;SHT31;52947;50.842;6.084;2023-02-13T09:47:33;23.21;40.65
66144;SHT31;52947;50.842;6.084;2023-02-13T09:50:06;23.07;40.66
66144;SHT31;52947;50.842;6.084;2023-02-13T09:52:38;22.26;40.69
66144;SHT31;52947;50.842;6.084;2023-02-13T09:55:14;23.85;40.16
66144;SHT31;52947;50.842;6.084;2023-02-13T09:57:46;22.97;42.18
66144;SHT31;52947;50.842;6.084;2023-02-13T10:00:20;23.35;42.05
66144;SHT31;52947;50.842;6.084;2023-02-13T10:05:59;23.37;42.17
66144;SHT31;52947;50.842;6.084;2023-02-13T10:08:59;23.97;40.42
66144;SHT31;52947;50.842;6.084;2023-02-13T10:11:51;23.65;40.27
66144;SHT31;52947;50.842;6.084;2023-02-13T10:14:31;23.37;40.93
66144;SHT31;52947;50.842;6.084;2023-02-13T10:17:05;23.32;40.58
66144;SHT31;52947;50.842;6.084;2023-02-13T10:19:40;23.82;39.98
66144;SHT31;52947;50.842;6.084;2023-02-13T10:22:13;22.97;41.00
66144;SHT31;52947;50.842;6.084;2023-02-13T10:24:45;23.10;42.07
66144;SHT31;52947;50.842;6.084;2023-02-13T10:27:21;23.04;41.37
66144;SHT31;52947;50.842;6.084;2023-02-13T10:29:54;23.29;41.05
66144;SHT31;52947;50.842;6.084;2023-02-13T10:32:48;23.79;39.39
66144;SHT31;52947;50.842;6.084;2023-02-13T10:35:23;24.24;38.58
66144;SHT31;52947;50.842;6.084;2023-02-13T10:37:54;24.69;38.57
66144;SHT31;52947;50.842;6.084;2023-02-13T10:40:29;24.37;39.18
66144;SHT31;52947;50.842;6.084;2023-02-13T10:43:02;23.52;40.75
66144;SHT31;52947;50.842;6.084;2023-02-13T10:45:48;23.87;39.82
66144;SHT31;52947;50.842;6.084;2023-02-13T10:48:32;23.95;39.83
66144;SHT31;52947;50.842;6.084;2023-02-13T10:51:07;24.07;39.68
66144;SHT31;52947;50.842;6.084;2023-02-13T10:53:50;23.89;39.71
66144;SHT31;52947;50.842;6.084;2023-02-13T10:56:24;23.07;40.97
66144;SHT31;52947;50.842;6.084;2023-02-13T10:59:01;22.87;41.22
66144;SHT31;52947;50.842;6.084;2023-02-13T11:01:35;23.72;40.09
66144;SHT31;52947;50.842;6.084;2023-02-13T11:04:07;22.80;41.97
66144;SHT31;52947;50.842;6.084;2023-02-13T11:06:41;22.96;41.99
66144;SHT31;52947;50.842;6.084;2023-02-13T11:09:10;22.93;42.04
66144;SHT31;52947;50.842;6.084;2023-02-13T11:11:40;23.10;41.80
66144;SHT31;52947;50.842;6.084;2023-02-13T11:14:19;23.72;41.38
66144;SHT31;52947;50.842;6.084;2023-02-13T11:16:51;23.93;40.40
66144;SHT31;52947;50.842;6.084;2023-02-13T11:19:24;23.65;40.87
66144;SHT31;52947;50.842;6.084;2023-02-13T11:21:57;23.21;42.01
66144;SHT31;52947;50.842;6.084;2023-02-13T11:24:26;23.49;41.07
66144;SHT31;52947;50.842;6.084;2023-02-13T11:26:56;22.30;43.48
66144;SHT31;52947;50.842;6.084;2023-02-13T11:29:27;22.57;43.13
66144;SHT31;52947;50.842;6.084;2023-02-13T11:34:48;22.49;42.63
66144;SHT31;52947;50.842;6.084;2023-02-13T11:37:23;23.03;41.60
66144;SHT31;52947;50.842;6.084;2023-02-13T11:39:54;23.72;41.09
66144;SHT31;52947;50.842;6.084;2023-02-13T11:42:28;22.84;42.12
66144;SHT31;52947;50.842;6.084;2023-02-13T11:44:59;23.08;42.10
66144;SHT31;52947;50.842;6.084;2023-02-13T11:47:35;22.71;43.15
66144;SHT31;52947;50.842;6.084;2023-02-13T11:50:04;23.10;41.19
66144;SHT31;52947;50.842;6.084;2023-02-13T11:52:34;23.31;41.24
66144;SHT31;52947;50.842;6.084;2023-02-13T11:55:05;21.48;44.43
66144;SHT31;52947;50.842;6.084;2023-02-13T11:57:55;22.40;43.03
66144;SHT31;52947;50.842;6.084;2023-02-13T12:00:30;22.09;43.47
66144;SHT31;52947;50.842;6.084;2023-02-13T12:03:24;22.47;43.10
66144;SHT31;52947;50.842;6.084;2023-02-13T12:06:01;21.91;44.93
66144;SHT31;52947;50.842;6.084;2023-02-13T12:08:33;21.54;45.24
66144;SHT31;52947;50.842;6.084;2023-02-13T12:11:03;19.42;48.85
66144;SHT31;52947;50.842;6.084;2023-02-13T12:13:36;21.00;46.73
66144;SHT31;52947;50.842;6.084;2023-02-13T12:16:10;20.72;46.05
66144;SHT31;52947;50.842;6.084;2023-02-13T12:18:43;20.01;48.16
66144;SHT31;52947;50.842;6.084;2023-02-13T12:21:24;19.56;49.24
66144;SHT31;52947;50.842;6.084;2023-02-13T12:24:02;19.26;49.21
66144;SHT31;52947;50.842;6.084;2023-02-13T12:26:38;20.10;49.04
66144;SHT31;52947;50.842;6.084;2023-02-13T12:29:23;18.78;51.78
66144;SHT31;52947;50.842;6.084;2023-02-13T12:32:02;19.19;51.03
66144;SHT31;52947;50.842;6.084;2023-02-13T12:35:01;19.87;48.41
66144;SHT31;52947;50.842;6.084;2023-02-13T12:37:48;17.48;53.65
66144;SHT31;52947;50.842;6.084;2023-02-13T12:40:39;17.00;54.47
66144;SHT31;52947;50.842;6.084;2023-02-13T12:46:06;17.42;53.99
66144;SHT31;52947;50.842;6.084;2023-02-13T12:48:41;18.23;52.62
66144;SHT31;52947;50.842;6.084;2023-02-13T12:51:22;19.56;49.50
66144;SHT31;52947;50.842;6.084;2023-02-13T12:54:04;18.64;51.97
66144;SHT31;52947;50.842;6.084;2023-02-13T12:59:48;16.47;54.74
66144;SHT31;52947;50.842;6.084;2023-02-13T13:02:49;15.84;56.99
66144;SHT31;52947;50.842;6.084;2023-02-13T13:05:30;17.89;52.83
66144;SHT31;52947;50.842;6.084;2023-02-13T13:08:19;18.79;50.28
66144;SHT31;52947;50.842;6.084;2023-02-13T13:11:08;19.34;50.02
66144;SHT31;52947;50.842;6.084;2023-02-13T13:13:50;18.11;51.50
66144;SHT31;52947;50.842;6.084;2023-02-13T13:16:28;17.59;53.49
66144;SHT31;52947;50.842;6.084;2023-02-13T13:19:01;17.96;51.51
66144;SHT31;52947;50.842;6.084;2023-02-13T13:21:40;17.53;52.43
66144;SHT31;52947;50.842;6.084;2023-02-13T13:24:20;17.56;52.58
66144;SHT31;52947;50.842;6.084;2023-02-13T13:26:50;17.39;53.12
66144;SHT31;52947;50.842;6.084;2023-02-13T13:29:26;17.38;53.17
66144;SHT31;52947;50.842;6.084;2023-02-13T13:32:01;16.09;55.31
66144;SHT31;52947;50.842;6.084;2023-02-13T13:34:31;15.71;56.63
66144;SHT31;52947;50.842;6.084;2023-02-13T13:37:04;15.91;56.50
66144;SHT31;52947;50.842;6.084;2023-02-13T13:39:44;15.92;55.66
66144;SHT31;52947;50.842;6.084;2023-02-13T13:42:17;16.32;54.54
66144;SHT31;52947;50.842;6.084;2023-02-13T13:45:10;16.22;55.65
66144;SHT31;52947;50.842;6.084;2023-02-13T13:47:56;16.22;55.79
66144;SHT31;52947;50.842;6.084;2023-02-13T13:50:29;15.04;57.19
66144;SHT31;52947;50.842;6.084;2023-02-13T13:53:06;15.06;57.71
66144;SHT31;52947;50.842;6.084;2023-02-13T13:56:00;15.38;56.62
66144;SHT31;52947;50.842;6.084;2023-02-13T13:58:38;15.22;58.93
66144;SHT31;52947;50.842;6.084;2023-02-13T14:01:21;14.90;59.70
66144;SHT31;52947;50.842;6.084;2023-02-13T14:03:52;14.69;60.09
66144;SHT31;52947;50.842;6.084;2023-02-13T14:06:23;15.36;58.20
66144;SHT31;52947;50.842;6.084;2023-02-13T14:08:57;15.23;59.37
66144;SHT31;52947;50.842;6.084;2023-02-13T14:11:32;15.26;59.74
66144;SHT31;52947;50.842;6.084;2023-02-13T14:14:00;15.36;58.93
66144;SHT31;52947;50.842;6.084;2023-02-13T14:16:37;14.79;60.62
66144;SHT31;52947;50.842;6.084;2023-02-13T14:19:23;13.97;62.95
66144;SHT31;52947;50.842;6.084;2023-02-13T14:21:52;13.54;65.00
66144;SHT31;52947;50.842;6.084;2023-02-13T14:24:21;13.45;65.20
66144;SHT31;52947;50.842;6.084;2023-02-13T14:26:52;13.18;65.58
66144;SHT31;52947;50.842;6.084;2023-02-13T14:29:32;12.99;66.51
66144;SHT31;52947;50.842;6.084;2023-02-13T14:32:18;12.95;66.91
66144;SHT31;52947;50.842;6.084;2023-02-13T14:34:55;12.98;67.38
66144;SHT31;52947;50.842;6.084;2023-02-13T14:37:29;13.01;68.06
66144;SHT31;52947;50.842;6.084;2023-02-13T14:43:22;12.82;68.36
66144;SHT31;52947;50.842;6.084;2023-02-13T14:45:55;12.68;69.10
66144;SHT31;52947;50.842;6.084;2023-02-13T14:48:33;12.60;69.50
66144;SHT31;52947;50.842;6.084;2023-02-13T14:51:04;12.55;70.12
66144;SHT31;52947;50.842;6.084;2023-02-13T14:53:48;12.54;70.32
66144;SHT31;52947;50.842;6.084;2023-02-13T14:56:20;12.55;70.26
66144;SHT31;52947;50.842;6.084;2023-02-13T14:58:52;12.58;70.28
66144;SHT31;52947;50.842;6.084;2023-02-13T15:01:27;12.54;70.37
66144;SHT31;52947;50.842;6.084;2023-02-13T15:04:00;12.51;70.70
66144;SHT31;52947;50.842;6.084;2023-02-13T15:06:38;12.45;70.43
66144;SHT31;52947;50.842;6.084;2023-02-13T15:09:18;12.43;70.49
66144;SHT31;52947;50.842;6.084;2023-02-13T15:11:47;12.38;70.59
66144;SHT31;52947;50.842;6.084;2023-02-13T15:14:24;12.37;70.89
66144;SHT31;52947;50.842;6.084;2023-02-13T15:16:54;12.34;71.15
66144;SHT31;52947;50.842;6.084;2023-02-13T15:19:24;12.33;71.02
66144;SHT31;52947;50.842;6.084;2023-02-13T15:21:56;12.36;71.34
66144;SHT31;52947;50.842;6.084;2023-02-13T15:24:26;12.31;71.60
66144;SHT31;52947;50.842;6.084;2023-02-13T15:26:59;12.27;71.66
66144;SHT31;52947;50.842;6.084;2023-02-13T15:29:28;12.26;71.98
66144;SHT31;52947;50.842;6.084;2023-02-13T15:32:18;12.24;71.82
66144;SHT31;52947;50.842;6.084;2023-02-13T15:34:47;12.22;72.14
66144;SHT31;52947;50.842;6.084;2023-02-13T15:37:22;12.13;72.25
66144;SHT31;52947;50.842;6.084;2023-02-13T15:39:50;12.12;72.34
66144;SHT31;52947;50.842;6.084;2023-02-13T15:42:18;12.03;72.85
66144;SHT31;52947;50.842;6.084;2023-02-13T15:44:48;11.99;72.89
66144;SHT31;52947;50.842;6.084;2023-02-13T15:47:22;11.96;73.24
66144;SHT31;52947;50.842;6.084;2023-02-13T15:49:53;11.89;73.21
66144;SHT31;52947;50.842;6.084;2023-02-13T15:52:30;11.94;73.03
66144;SHT31;52947;50.842;6.084;2023-02-13T15:54:59;11.85;73.17
66144;SHT31;52947;50.842;6.084;2023-02-13T15:57:28;11.86;72.82
66144;SHT31;52947;50.842;6.084;2023-02-13T15:59:58;11.93;72.73
66144;SHT31;52947;50.842;6.084;2023-02-13T16:02:40;11.87;73.06
66144;SHT31;52947;50.842;6.084;2023-02-13T16:05:12;11.82;73.27
66144;SHT31;52947;50.842;6.084;2023-02-13T16:07:50;11.76;73.47
66144;SHT31;52947;50.842;6.084;2023-02-13T16:10:25;11.59;73.73
66144;SHT31;52947;50.842;6.084;2023-02-13T16:12:55;11.59;73.74
66144;SHT31;52947;50.842;6.084;2023-02-13T16:15:27;11.55;73.69
66144;SHT31;52947;50.842;6.084;2023-02-13T16:17:56;11.36;74.27
66144;SHT31;52947;50.842;6.084;2023-02-13T16:20:26;11.48;74.11
66144;SHT31;52947;50.842;6.084;2023-02-13T16:22:57;11.48;74.20
66144;SHT31;52947;50.842;6.084;2023-02-13T16:25:29;11.27;74.85
66144;SHT31;52947;50.842;6.084;2023-02-13T16:27:59;11.28;74.88
66144;SHT31;52947;50.842;6.084;2023-02-13T16:30:32;11.21;75.01